Terminal Aerodrome Forecast
Issued by NWS

Home | Current Version | Previous Version | Text Only | Print | Product List | Glossary On
Versions: 1 2 3 4 5 6 7 8 9 10 11 12 13 14 15 16 17 18
000
FTUS42 KILM 282340
TAFCRE
TAF
KCRE 282340Z 2900/2924 21011KT P6SM VCTS SCT040CB BKN100
     FM290330 22004KT P6SM SCT050
     FM291100 35006KT P6SM FEW050
     FM291400 36007KT P6SM FEW250
     FM291700 03005KT P6SM FEW050=

USA.gov is the U.S. government's official web portal to all federal, state and local government web resources and services.